Time;durP1;ratioP1;P1;durP2;ratioP2;P2;SDS_P1;SDS_P2;PMS_P1;PMS_P2;Temp;Humidity;BMP_temperature;BMP_pressure;BME280_temperature;BME280_humidity;BME280_pressure;Samples;Min_cycle;Max_cycle;Signal;HPM_P1;HPM_P2
2022/09/02 00:00:19;;;;;;;4.80;4.40;;;;;;;16.06;100.00;97303.79;109832;1249;69410;-72
2022/09/02 00:03:00;;;;;;;6.00;4.20;;;;;;;16.06;100.00;97305.50;109801;1249;60802;-72
2022/09/02 00:05:30;;;;;;;5.50;3.90;;;;;;;16.08;100.00;97306.02;110055;1249;60621;-74
2022/09/02 00:07:59;;;;;;;;;;;;;;;16.10;100.00;97303.67;109996;1248;72023;-74
2022/09/02 00:10:31;;;;;;;5.60;4.90;;;;;;;16.12;100.00;97302.27;110337;1250;69539;-73
2022/09/02 00:13:00;;;;;;;5.80;4.20;;;;;;;16.14;100.00;97304.53;110064;1247;69216;-74
2022/09/02 00:15:31;;;;;;;5.80;4.30;;;;;;;16.16;100.00;97302.73;109986;1249;60493;-74
2022/09/02 00:18:02;;;;;;;4.80;3.90;;;;;;;16.17;100.00;97302.31;109837;1247;60459;-72
2022/09/02 00:20:32;;;;;;;5.80;4.40;;;;;;;16.18;100.00;97305.93;109969;1250;72300;-73
2022/09/02 00:23:03;;;;;;;5.20;4.70;;;;;;;16.17;100.00;97303.67;109966;1249;69398;-72
2022/09/02 00:25:35;;;;;;;5.00;4.50;;;;;;;16.16;100.00;97302.77;109773;1250;68735;-72
2022/09/02 00:28:05;;;;;;;6.90;4.80;;;;;;;16.14;99.95;97302.98;109682;1249;60500;-73
2022/09/02 00:30:36;;;;;;;4.80;4.00;;;;;;;16.13;99.71;97299.52;109702;1250;60833;-73
2022/09/02 00:33:07;;;;;;;5.30;4.20;;;;;;;16.13;99.37;97303.02;110058;1249;72133;-73
2022/09/02 00:35:37;;;;;;;5.30;4.50;;;;;;;16.13;99.18;97305.18;109955;1249;68508;-73
2022/09/02 00:38:07;;;;;;;5.70;4.90;;;;;;;16.14;99.08;97303.82;110058;1249;69394;-74
2022/09/02 00:40:42;;;;;;;5.70;4.20;;;;;;;16.14;98.83;97298.18;110083;1249;60496;-73
2022/09/02 00:43:42;;;;;;;5.20;4.20;;;;;;;16.15;97.97;97300.06;109985;1249;60495;-74
2022/09/02 00:46:17;;;;;;;5.00;4.40;;;;;;;16.14;96.01;97304.14;109925;1249;72260;-73
2022/09/02 00:49:10;;;;;;;4.90;4.20;;;;;;;16.12;95.77;97304.34;109712;1250;69456;-73
2022/09/02 00:51:50;;;;;;;4.20;3.50;;;;;;;16.12;95.82;97306.15;110033;1249;69394;-73
2022/09/02 00:54:22;;;;;;;5.30;3.70;;;;;;;16.11;95.19;97309.38;109983;1248;60521;-72
2022/09/02 00:56:53;;;;;;;4.20;3.50;;;;;;;16.11;94.52;97312.05;109857;1247;60551;-72
2022/09/02 00:59:37;;;;;;;5.00;4.40;;;;;;;16.10;94.55;97309.34;109983;1250;72381;-73
2022/09/02 01:02:08;;;;;;;5.70;4.10;;;;;;;16.10;95.59;97309.48;109887;1248;68705;-73
2022/09/02 01:04:38;;;;;;;4.90;4.00;;;;;;;16.09;96.24;97306.59;109670;1247;69287;-72
2022/09/02 01:07:09;;;;;;;5.40;4.40;;;;;;;16.07;95.97;97306.83;110007;1247;60544;-72
2022/09/02 01:09:39;;;;;;;5.10;4.60;;;;;;;16.04;95.31;97304.24;109847;1250;60533;-75
2022/09/02 01:12:12;;;;;;;5.50;4.00;;;;;;;16.02;96.32;97307.08;110215;1247;72358;-72
2022/09/02 01:14:44;;;;;;;5.00;3.70;;;;;;;15.99;95.92;97310.01;110205;1247;68453;-73
2022/09/02 01:17:18;;;;;;;4.90;3.50;;;;;;;15.98;95.26;97310.15;109878;1250;68643;-73
2022/09/02 01:19:52;;;;;;;4.10;3.70;;;;;;;15.96;94.70;97313.64;109868;1248;60516;-73
2022/09/02 01:22:30;;;;;;;5.80;3.80;;;;;;;15.94;94.59;97317.33;110101;1247;60478;-73
2022/09/02 01:25:10;;;;;;;6.30;4.10;;;;;;;15.92;93.74;97315.95;110006;1248;72415;-73
2022/09/02 01:27:40;;;;;;;4.60;4.10;;;;;;;15.88;93.13;97318.11;110079;1247;68612;-73
2022/09/02 01:30:16;;;;;;;5.10;4.60;;;;;;;15.86;94.51;97320.09;109871;1247;68714;-73
2022/09/02 01:32:47;;;;;;;4.40;3.60;;;;;;;15.85;95.93;97323.13;110023;1247;60480;-72
2022/09/02 01:35:16;;;;;;;5.10;4.00;;;;;;;15.85;95.75;97319.42;109844;1250;60561;-72
2022/09/02 01:37:48;;;;;;;4.20;3.80;;;;;;;15.85;96.83;97320.35;109761;1250;71561;-73
2022/09/02 01:40:27;;;;;;;4.90;4.20;;;;;;;15.84;96.48;97316.77;110097;1249;68726;-72
2022/09/02 01:43:09;;;;;;;4.90;4.30;;;;;;;15.82;95.94;97311.69;109767;1250;69223;-72
2022/09/02 01:45:41;;;;;;;5.40;3.80;;;;;;;15.78;96.46;97311.95;109817;1247;60448;-73
2022/09/02 01:48:13;;;;;;;5.20;4.70;;;;;;;15.77;97.15;97312.96;109690;1250;60566;-72
2022/09/02 01:50:57;;;;;;;4.50;3.80;;;;;;;15.76;98.73;97317.33;110005;1249;72386;-73
2022/09/02 01:53:28;;;;;;;4.30;3.50;;;;;;;15.76;97.93;97317.31;110061;1247;69402;-73
2022/09/02 01:55:59;;;;;;;4.70;4.00;;;;;;;15.76;97.14;97311.64;109825;1249;69278;-72
2022/09/02 01:58:31;;;;;;;5.40;4.00;;;;;;;15.76;97.54;97312.35;109951;1248;60512;-72
2022/09/02 02:01:06;;;;;;;5.70;4.60;;;;;;;15.76;97.13;97310.10;109601;1250;60501;-73
2022/09/02 02:03:37;;;;;;;5.60;3.70;;;;;;;15.74;97.10;97312.98;109831;1247;72366;-72
2022/09/02 02:06:13;;;;;;;3.90;3.30;;;;;;;15.73;97.84;97315.50;110030;1248;68621;-72
2022/09/02 02:08:48;;;;;;;5.80;3.50;;;;;;;15.70;97.33;97310.82;109764;1248;69881;-72
2022/09/02 02:11:25;;;;;;;4.70;3.20;;;;;;;15.69;97.37;97311.17;109803;1250;60568;-75
2022/09/02 02:14:00;;;;;;;3.20;2.90;;;;;;;15.68;97.36;97310.34;110110;1248;60496;-72
2022/09/02 02:16:31;;;;;;;4.20;3.30;;;;;;;15.68;96.60;97313.17;109820;1250;71587;-74
2022/09/02 02:19:04;;;;;;;3.80;3.20;;;;;;;15.67;95.04;97308.17;109876;1250;69458;-72
2022/09/02 02:21:34;;;;;;;4.20;3.40;;;;;;;15.64;94.68;97308.63;109613;1251;69344;-75
2022/09/02 02:24:08;;;;;;;4.30;3.50;;;;;;;15.61;96.34;97309.20;110062;1249;60474;-74
2022/09/02 02:26:39;;;;;;;3.20;2.90;;;;;;;15.59;96.13;97306.98;110045;1250;60504;-72
2022/09/02 02:29:11;;;;;;;6.50;4.30;;;;;;;15.57;95.30;97303.66;110005;1250;71546;-72
2022/09/02 02:31:41;;;;;;;5.50;3.70;;;;;;;15.54;97.13;97305.33;110053;1248;68604;-75
2022/09/02 02:34:14;;;;;;;4.10;3.40;;;;;;;15.51;98.72;97302.61;109975;1247;69364;-73
2022/09/02 02:36:46;;;;;;;4.40;3.50;;;;;;;15.51;97.42;97302.11;109838;1250;60475;-73
2022/09/02 02:39:18;;;;;;;4.00;3.50;;;;;;;15.50;97.10;97304.09;110010;1249;60522;-73
2022/09/02 02:41:47;;;;;;;3.20;2.80;;;;;;;15.50;96.60;97310.63;109905;1250;72324;-72
2022/09/02 02:44:17;;;;;;;3.80;3.30;;;;;;;15.48;95.53;97312.53;109676;1248;69624;-72
2022/09/02 02:46:48;;;;;;;4.50;2.90;;;;;;;15.47;94.47;97316.13;109663;1250;69430;-73
2022/09/02 02:49:22;;;;;;;4.20;2.90;;;;;;;15.45;94.28;97312.29;109766;1249;61002;-73
2022/09/02 02:51:53;;;;;;;4.50;2.90;;;;;;;15.45;94.76;97316.23;109772;1250;60613;-73
2022/09/02 02:54:23;;;;;;;3.90;2.80;;;;;;;15.45;96.43;97314.26;109795;1250;71603;-73
2022/09/02 02:57:05;;;;;;;4.00;3.20;;;;;;;15.44;96.43;97314.72;110072;1247;68751;-73
2022/09/02 02:59:35;;;;;;;4.60;3.30;;;;;;;15.44;96.23;97312.02;109983;1250;68801;-73
2022/09/02 03:02:06;;;;;;;3.60;3.00;;;;;;;15.45;97.12;97310.61;109766;1250;60549;-75
2022/09/02 03:04:38;;;;;;;3.80;2.90;;;;;;;15.43;97.54;97310.39;109831;1250;60571;-72
2022/09/02 03:07:08;;;;;;;4.10;3.10;;;;;;;15.42;97.91;97306.64;110040;1249;70557;-72
2022/09/02 03:09:38;;;;;;;4.30;3.10;;;;;;;15.39;97.04;97306.54;109673;1250;68651;-73
2022/09/02 03:12:10;;;;;;;4.90;2.90;;;;;;;15.38;95.65;97303.71;109938;1250;68862;-73
2022/09/02 03:14:40;;;;;;;3.40;2.50;;;;;;;15.34;94.34;97304.39;110275;1247;60701;-73
2022/09/02 03:17:11;;;;;;;3.20;2.40;;;;;;;15.31;93.33;97303.96;109930;1249;60478;-74
2022/09/02 03:19:41;;;;;;;3.00;2.30;;;;;;;15.28;93.01;97309.70;110161;1248;71487;-74
2022/09/02 03:22:12;;;;;;;3.00;2.70;;;;;;;15.26;92.70;97313.60;109877;1250;68621;-74
2022/09/02 03:24:42;;;;;;;3.30;2.70;;;;;;;15.23;93.28;97313.42;110009;1249;68638;-74
2022/09/02 03:27:13;;;;;;;4.70;2.70;;;;;;;15.22;93.76;97317.05;109752;1250;60474;-72
2022/09/02 03:29:43;;;;;;;3.80;2.70;;;;;;;15.21;92.72;97311.77;109763;1250;60519;-74
2022/09/02 03:32:13;;;;;;;3.40;2.60;;;;;;;15.18;92.63;97314.15;109691;1250;72441;-74
2022/09/02 03:34:44;;;;;;;3.70;2.70;;;;;;;15.16;93.10;97315.59;109685;1250;68793;-74
2022/09/02 03:37:14;;;;;;;2.90;2.50;;;;;;;15.15;94.36;97316.76;109826;1250;68464;-72
2022/09/02 03:39:43;;;;;;;2.20;1.80;;;;;;;15.14;94.15;97314.52;109740;1248;60540;-72
2022/09/02 03:42:14;;;;;;;4.00;2.70;;;;;;;15.12;92.94;97319.27;109633;1250;60530;-72
2022/09/02 03:44:50;;;;;;;4.70;2.50;;;;;;;15.08;93.57;97322.42;109740;1250;71525;-72
2022/09/02 03:47:21;;;;;;;3.90;2.90;;;;;;;15.07;93.62;97324.53;109739;1251;68898;-73
2022/09/02 03:49:54;;;;;;;5.30;3.60;;;;;;;15.05;95.27;97328.39;109756;1250;69465;-72
2022/09/02 03:52:24;;;;;;;4.60;2.90;;;;;;;15.03;95.22;97331.86;110045;1247;60525;-73
2022/09/02 03:54:54;;;;;;;4.90;3.70;;;;;;;15.02;94.18;97334.95;109955;1250;60512;-73
2022/09/02 03:57:26;;;;;;;8.00;3.70;;;;;;;14.99;93.96;97339.73;109760;1251;71234;-72
2022/09/02 03:59:55;;;;;;;3.40;2.90;;;;;;;14.95;94.50;97340.16;109736;1250;69237;-73
2022/09/02 04:02:24;;;;;;;4.20;3.80;;;;;;;14.91;94.25;97339.82;109755;1250;68838;-74
2022/09/02 04:04:54;;;;;;;;;;;;;;;14.86;94.77;97347.98;110022;1247;60498;-73
2022/09/02 04:07:23;;;;;;;4.50;3.30;;;;;;;14.82;95.89;97352.77;109784;1250;60522;-73
2022/09/02 04:09:55;;;;;;;5.00;3.00;;;;;;;14.80;96.68;97350.87;109978;1247;72187;-73
2022/09/02 04:12:24;;;;;;;3.20;2.30;;;;;;;14.79;96.21;97353.33;110001;1247;69122;-74
2022/09/02 04:15:04;;;;;;;5.00;2.80;;;;;;;14.80;96.85;97353.83;109841;1248;68653;-73
2022/09/02 04:17:36;;;;;;;2.90;2.50;;;;;;;14.81;96.84;97355.32;109981;1250;60548;-73
2022/09/02 04:20:08;;;;;;;3.80;2.90;;;;;;;14.84;97.56;97359.27;109788;1249;60551;-73
2022/09/02 04:22:38;;;;;;;3.90;2.80;;;;;;;14.85;97.22;97360.52;109734;1248;72270;-73
2022/09/02 04:25:08;;;;;;;4.30;3.00;;;;;;;14.87;96.97;97361.95;109663;1250;68491;-73
2022/09/02 04:27:38;;;;;;;5.20;2.80;;;;;;;14.89;97.98;97363.00;109900;1249;68660;-73
2022/09/02 04:30:09;;;;;;;3.30;2.40;;;;;;;14.91;97.34;97362.65;109770;1250;60557;-73
2022/09/02 04:32:39;;;;;;;4.80;2.90;;;;;;;14.92;97.09;97364.44;110087;1249;60476;-72
2022/09/02 04:35:09;;;;;;;4.30;2.60;;;;;;;14.94;96.58;97368.00;109729;1250;72240;-74
2022/09/02 04:37:39;;;;;;;4.20;2.50;;;;;;;14.94;95.75;97364.42;109667;1250;67639;-73
2022/09/02 04:40:09;;;;;;;3.80;2.90;;;;;;;14.96;96.18;97369.90;109717;1250;69380;-74
2022/09/02 04:42:38;;;;;;;3.80;3.10;;;;;;;14.97;95.63;97367.52;109706;1250;60528;-74
2022/09/02 04:45:09;;;;;;;4.20;2.70;;;;;;;14.93;93.79;97364.76;109836;1250;60988;-74
2022/09/02 04:47:39;;;;;;;3.60;2.80;;;;;;;14.93;93.76;97363.46;109789;1249;72359;-74
2022/09/02 04:50:09;;;;;;;4.00;3.00;;;;;;;14.92;92.87;97365.48;109713;1250;69375;-75
2022/09/02 04:52:39;;;;;;;3.60;2.90;;;;;;;14.91;92.70;97362.75;109804;1250;69528;-72
2022/09/02 04:55:09;;;;;;;4.40;3.20;;;;;;;14.93;92.03;97361.76;105748;1250;5336817;-73
2022/09/02 04:57:38;;;;;;;4.50;3.50;;;;;;;14.91;91.60;97361.23;110142;1249;60555;-72
2022/09/02 05:00:09;;;;;;;4.10;3.30;;;;;;;14.90;91.75;97362.06;109863;1250;72408;-73
2022/09/02 05:02:39;;;;;;;3.90;3.30;;;;;;;14.87;92.34;97360.57;109796;1250;68587;-72
2022/09/02 05:05:09;;;;;;;5.90;3.80;;;;;;;14.86;93.74;97366.23;109716;1250;69393;-72
2022/09/02 05:07:39;;;;;;;4.30;3.50;;;;;;;14.87;94.57;97364.36;110029;1248;60514;-72
2022/09/02 05:10:11;;;;;;;5.20;3.70;;;;;;;14.88;95.49;97364.45;109856;1250;60476;-74
2022/09/02 05:12:42;;;;;;;3.40;3.00;;;;;;;14.88;96.15;97367.25;109943;1250;71516;-73
2022/09/02 05:15:12;;;;;;;4.90;3.10;;;;;;;14.88;96.34;97368.17;109682;1251;69404;-73
2022/09/02 05:17:42;;;;;;;4.00;3.10;;;;;;;14.88;95.71;97369.19;109893;1250;69514;-73
2022/09/02 05:20:12;;;;;;;3.40;3.10;;;;;;;14.88;96.87;97370.10;109839;1250;60981;-73
2022/09/02 05:22:42;;;;;;;4.10;3.10;;;;;;;14.90;96.95;97369.98;109608;1249;60424;-74
2022/09/02 05:25:15;;;;;;;3.60;3.20;;;;;;;14.90;97.98;97371.63;109589;1252;71555;-75
2022/09/02 05:27:44;;;;;;;4.50;3.20;;;;;;;14.92;96.98;97369.71;109749;1250;68689;-73
2022/09/02 05:30:14;;;;;;;4.40;3.40;;;;;;;14.95;97.35;97368.96;110206;1250;68621;-73
2022/09/02 05:32:44;;;;;;;4.40;3.80;;;;;;;14.96;97.93;97368.85;110036;1250;60428;-73
2022/09/02 05:35:15;;;;;;;5.20;3.90;;;;;;;14.98;98.21;97373.54;110037;1249;60543;-74
2022/09/02 05:37:44;;;;;;;4.70;4.00;;;;;;;15.01;98.52;97374.36;110015;1249;72333;-73
2022/09/02 05:40:14;;;;;;;6.60;4.60;;;;;;;15.05;98.02;97374.16;109976;1249;69242;-71
2022/09/02 05:42:43;;;;;;;6.70;4.50;;;;;;;15.08;98.48;97374.77;109633;1250;69536;-73
2022/09/02 05:45:15;;;;;;;5.70;3.90;;;;;;;15.10;97.66;97373.18;109814;1250;60561;-73
2022/09/02 05:47:44;;;;;;;4.90;3.30;;;;;;;15.13;96.66;97375.88;110012;1250;60535;-74
2022/09/02 05:50:15;;;;;;;5.50;4.80;;;;;;;15.15;95.64;97377.61;110152;1249;70917;-72
2022/09/02 05:52:50;;;;;;;5.60;4.20;;;;;;;15.13;96.22;97374.66;110099;1247;68506;-72
2022/09/02 05:55:19;;;;;;;4.20;3.60;;;;;;;15.12;95.25;97374.74;109790;1247;69415;-71
2022/09/02 05:57:48;;;;;;;4.80;3.70;;;;;;;15.12;94.07;97377.23;110222;1247;60511;-73
2022/09/02 06:00:17;;;;;;;4.80;3.70;;;;;;;15.11;93.84;97379.91;110053;1247;60493;-72
2022/09/02 06:02:54;;;;;;;4.30;3.70;;;;;;;15.10;92.93;97380.16;109985;1247;71904;-73
2022/09/02 06:05:37;;;;;;;4.50;3.20;;;;;;;15.09;92.57;97380.29;110003;1247;68809;-72
2022/09/02 06:08:09;;;;;;;5.50;2.80;;;;;;;15.08;92.40;97379.48;109739;1250;68971;-74
2022/09/02 06:10:42;;;;;;;4.10;3.60;;;;;;;15.06;92.17;97380.86;110062;1247;60517;-72
2022/09/02 06:13:14;;;;;;;4.60;3.40;;;;;;;15.06;92.11;97384.22;110004;1247;60481;-74
2022/09/02 06:15:44;;;;;;;5.60;3.40;;;;;;;15.04;92.05;97387.72;110024;1248;71801;-75
2022/09/02 06:18:13;;;;;;;7.30;4.80;;;;;;;15.07;94.26;97390.48;110044;1250;68769;-73
2022/09/02 06:20:46;;;;;;;5.40;4.10;;;;;;;15.13;97.21;97390.79;110187;1250;69437;-74
2022/09/02 06:23:17;;;;;;;4.00;3.40;;;;;;;15.15;94.93;97393.63;110131;1250;60575;-74
2022/09/02 06:25:48;;;;;;;4.90;3.70;;;;;;;15.16;93.64;97397.86;109865;1250;60517;-74
2022/09/02 06:28:17;;;;;;;5.20;3.90;;;;;;;15.17;93.20;97399.38;109968;1249;71672;-71
2022/09/02 06:30:49;;;;;;;;;;;;;;;15.15;93.27;97399.04;109814;1250;69459;-70
2022/09/02 06:33:22;;;;;;;4.40;4.00;;;;;;;15.18;95.73;97404.05;109692;1250;69864;-68
2022/09/02 06:35:52;;;;;;;5.30;3.80;;;;;;;15.18;94.53;97407.65;109846;1249;60541;-70
2022/09/02 06:38:21;;;;;;;4.90;3.50;;;;;;;15.22;96.40;97412.27;109944;1250;60533;-69
2022/09/02 06:40:53;;;;;;;4.40;3.20;;;;;;;15.19;93.41;97412.53;110004;1250;72521;-68
2022/09/02 06:43:32;;;;;;;6.10;5.00;;;;;;;15.17;93.76;97417.48;109707;1250;68789;-69
2022/09/02 06:46:42;;;;;;;4.50;3.50;;;;;;;15.18;95.11;97416.64;109942;1249;68602;-69
2022/09/02 06:49:15;;;;;;;4.30;3.40;;;;;;;15.20;93.13;97419.81;109907;1249;60597;-70
2022/09/02 06:51:48;;;;;;;4.70;4.20;;;;;;;15.21;92.68;97422.20;109789;1247;60490;-70
2022/09/02 06:54:20;;;;;;;5.20;4.30;;;;;;;15.22;94.89;97422.59;109755;1250;71777;-69
2022/09/02 06:56:51;;;;;;;4.40;4.00;;;;;;;15.24;93.50;97426.95;109727;1250;68983;-70
2022/09/02 06:59:23;;;;;;;4.40;3.80;;;;;;;15.22;92.84;97426.45;110156;1248;69646;-70
2022/09/02 07:01:54;;;;;;;5.70;4.70;;;;;;;15.19;94.33;97427.47;110095;1247;60564;-70
2022/09/02 07:07:15;;;;;;;7.20;4.10;;;;;;;15.18;94.57;97428.78;109731;1248;72327;-68
2022/09/02 07:09:51;;;;;;;6.10;4.30;;;;;;;15.20;95.57;97427.33;110068;1247;68229;-68
2022/09/02 07:12:20;;;;;;;5.00;3.60;;;;;;;15.25;94.07;97425.83;110098;1247;69475;-68
2022/09/02 07:15:04;;;;;;;4.90;4.20;;;;;;;15.23;92.78;97429.55;110110;1247;60557;-68
2022/09/02 07:17:37;;;;;;;6.80;5.20;;;;;;;15.22;95.13;97429.66;109986;1250;60546;-68
2022/09/02 07:20:10;;;;;;;5.30;4.70;;;;;;;15.26;95.06;97426.48;109762;1250;72184;-69
2022/09/02 07:22:43;;;;;;;6.00;4.70;;;;;;;15.28;95.22;97427.98;109825;1248;68668;-68
2022/09/02 07:25:16;;;;;;;5.60;4.70;;;;;;;15.33;93.69;97431.61;110217;1248;68450;-68
2022/09/02 07:27:50;;;;;;;6.00;5.30;;;;;;;15.36;93.71;97431.34;109902;1250;60504;-69
2022/09/02 07:30:20;;;;;;;5.30;4.20;;;;;;;15.40;92.71;97432.25;109652;1251;60565;-68
2022/09/02 07:32:52;;;;;;;5.70;3.90;;;;;;;15.38;91.55;97431.14;109942;1249;72204;-68
2022/09/02 07:35:23;;;;;;;6.70;4.50;;;;;;;15.38;91.75;97436.63;110102;1247;69422;-68
2022/09/02 07:37:52;;;;;;;4.30;3.80;;;;;;;15.41;91.18;97435.48;109732;1250;68665;-69
2022/09/02 07:40:22;;;;;;;5.10;4.30;;;;;;;15.42;90.76;97433.57;109666;1250;60519;-68
2022/09/02 07:42:51;;;;;;;5.20;4.60;;;;;;;15.46;91.00;97439.39;109745;1250;60514;-70
2022/09/02 07:45:21;;;;;;;3.80;3.10;;;;;;;15.50;91.67;97439.19;109976;1250;71407;-69
2022/09/02 07:47:50;;;;;;;6.80;4.90;;;;;;;15.54;91.05;97437.41;109990;1249;69425;-67
2022/09/02 07:50:20;;;;;;;5.40;4.60;;;;;;;15.56;90.97;97439.31;110018;1250;69542;-69
2022/09/02 07:52:57;;;;;;;5.80;4.50;;;;;;;15.60;90.71;97440.17;109824;1250;60499;-67
2022/09/02 07:55:29;;;;;;;5.30;4.80;;;;;;;15.62;91.02;97439.69;109866;1249;60484;-68
2022/09/02 07:57:58;;;;;;;4.90;4.10;;;;;;;15.67;91.77;97442.34;109769;1250;72533;-68
2022/09/02 08:00:28;;;;;;;5.60;4.70;;;;;;;15.75;90.90;97439.19;110068;1247;68631;-69
2022/09/02 08:03:02;;;;;;;5.10;4.50;;;;;;;15.76;90.40;97437.47;109904;1250;68461;-70
2022/09/02 08:05:36;;;;;;;4.70;4.00;;;;;;;15.81;90.53;97437.79;109916;1250;60576;-69
2022/09/02 08:08:06;;;;;;;5.40;4.50;;;;;;;15.85;90.13;97436.63;109728;1250;60463;-70
2022/09/02 08:10:36;;;;;;;4.60;3.90;;;;;;;15.87;90.62;97437.90;110047;1247;71588;-69
2022/09/02 08:13:05;;;;;;;;;;;;;;;15.90;89.28;97441.65;109724;1250;68711;-69
2022/09/02 08:15:35;;;;;;;6.10;5.00;;;;;;;15.92;90.76;97439.91;109990;1250;69301;-70
2022/09/02 08:18:05;;;;;;;4.60;4.00;;;;;;;15.96;89.60;97440.33;110044;1247;60546;-69
2022/09/02 08:20:35;;;;;;;5.40;4.30;;;;;;;15.98;87.81;97447.21;110136;1247;60494;-69
2022/09/02 08:23:05;;;;;;;;;;;;;;;16.00;87.45;97448.27;110099;1247;72355;-69
2022/09/02 08:25:40;;;;;;;5.70;4.40;;;;;;;16.07;87.67;97454.48;110264;1247;68922;-69
2022/09/02 08:28:09;;;;;;;;;;;;;;;16.13;87.66;97451.63;109941;1250;68767;-71
2022/09/02 08:30:38;;;;;;;6.10;4.50;;;;;;;16.12;87.36;97450.83;110130;1247;60563;-71
2022/09/02 08:33:07;;;;;;;6.00;4.50;;;;;;;16.10;87.10;97449.63;110194;1247;60543;-69
2022/09/02 08:35:37;;;;;;;4.70;4.10;;;;;;;16.09;86.54;97452.51;110058;1247;71662;-67
2022/09/02 08:38:06;;;;;;;5.30;4.40;;;;;;;16.03;85.34;97447.09;110222;1247;69263;-69
2022/09/02 08:40:39;;;;;;;5.60;3.90;;;;;;;15.99;85.74;97445.33;110107;1248;69446;-69
2022/09/02 08:43:38;;;;;;;5.00;3.90;;;;;;;16.00;85.84;97448.94;110215;1248;60574;-71
2022/09/02 08:46:13;;;;;;;4.40;3.70;;;;;;;15.98;85.53;97446.00;110111;1247;60499;-70
2022/09/02 08:48:58;;;;;;;5.10;4.20;;;;;;;15.97;86.39;97439.20;110105;1248;72554;-70
2022/09/02 08:51:55;;;;;;;5.20;3.80;;;;;;;15.94;86.07;97439.98;110289;1249;68750;-70
2022/09/02 08:54:44;;;;;;;5.30;4.30;;;;;;;15.88;85.34;97437.92;109996;1250;70358;-69
2022/09/02 08:57:13;;;;;;;7.20;4.40;;;;;;;15.82;85.49;97436.23;110071;1248;60506;-69
2022/09/02 08:59:45;;;;;;;5.30;4.00;;;;;;;15.74;85.32;97429.89;110097;1248;60588;-69
2022/09/02 09:02:15;;;;;;;4.80;4.00;;;;;;;15.70;85.36;97428.20;110217;1248;70965;-69
2022/09/02 09:05:09;;;;;;;4.50;3.90;;;;;;;15.63;85.79;97429.35;110068;1247;69346;-70
2022/09/02 09:07:58;;;;;;;6.90;4.80;;;;;;;15.59;86.76;97431.39;109870;1250;69193;-69
2022/09/02 09:10:46;;;;;;;5.70;3.90;;;;;;;15.57;86.42;97432.54;110143;1248;60553;-69
2022/09/02 09:13:59;;;;;;;5.10;4.20;;;;;;;15.56;86.88;97435.42;110119;1248;60515;-70
2022/09/02 09:16:58;;;;;;;5.90;4.40;;;;;;;15.55;86.88;97435.36;109244;1259;71677;-70
2022/09/02 09:19:43;;;;;;;6.00;4.50;;;;;;;15.49;86.69;97439.13;110135;1247;69382;-69
2022/09/02 09:22:15;;;;;;;5.70;4.50;;;;;;;15.42;86.37;97437.65;110128;1247;69540;-71
2022/09/02 09:24:49;;;;;;;7.80;4.40;;;;;;;15.33;87.41;97437.41;110443;1248;60539;-71
2022/09/02 09:27:21;;;;;;;5.30;3.80;;;;;;;15.29;86.96;97436.20;110602;1247;60429;-71
2022/09/02 09:29:51;;;;;;;6.30;4.50;;;;;;;15.24;87.32;97435.57;110389;1248;72280;-70
2022/09/02 09:32:34;;;;;;;5.70;4.30;;;;;;;15.25;87.42;97435.73;110270;1247;69383;-69
2022/09/02 09:35:07;;;;;;;7.20;4.90;;;;;;;15.25;88.46;97433.92;110118;1247;68937;-70
2022/09/02 09:37:41;;;;;;;5.90;4.20;;;;;;;15.30;88.32;97430.67;110048;1248;60559;-70
2022/09/02 09:40:31;;;;;;;7.20;4.40;;;;;;;15.37;89.77;97432.89;110111;1247;60515;-70
2022/09/02 09:43:07;;;;;;;;;;;;;;;15.45;88.93;97431.96;110198;1250;72393;-70
2022/09/02 09:45:45;;;;;;;6.00;4.50;;;;;;;15.47;88.19;97428.88;110079;1250;68858;-69
2022/09/02 09:48:32;;;;;;;6.30;4.70;;;;;;;15.48;87.58;97430.55;110118;1247;69423;-69
2022/09/02 09:51:01;;;;;;;5.70;4.40;;;;;;;15.49;88.30;97432.27;110108;1247;60495;-71
2022/09/02 09:53:33;;;;;;;5.20;4.60;;;;;;;15.47;87.67;97433.11;110200;1247;60483;-69
2022/09/02 09:56:04;;;;;;;5.90;3.80;;;;;;;15.42;87.62;97435.15;109989;1248;71592;-70
2022/09/02 09:58:38;;;;;;;6.40;4.80;;;;;;;15.45;87.51;97433.48;110040;1246;68623;-68
2022/09/02 10:01:22;;;;;;;6.00;4.60;;;;;;;15.44;87.50;97433.10;110073;1248;67467;-67
2022/09/02 10:03:55;;;;;;;8.50;4.20;;;;;;;15.43;87.89;97438.25;110142;1248;60414;-68
2022/09/02 10:06:30;;;;;;;6.50;4.80;;;;;;;15.45;87.94;97434.38;110079;1247;60494;-68
2022/09/02 10:09:21;;;;;;;4.80;3.90;;;;;;;15.48;87.59;97436.70;110116;1248;71575;-68
2022/09/02 10:11:59;;;;;;;5.00;4.20;;;;;;;15.51;87.19;97432.45;110244;1247;69378;-69
2022/09/02 10:14:39;;;;;;;5.70;4.40;;;;;;;15.49;88.44;97431.94;110117;1248;69394;-68
2022/09/02 10:17:24;;;;;;;5.30;4.20;;;;;;;15.46;88.11;97432.69;110139;1247;60921;-69
2022/09/02 10:20:12;;;;;;;4.60;3.50;;;;;;;15.45;88.46;97432.30;110120;1248;60573;-68
2022/09/02 10:22:47;;;;;;;4.70;4.00;;;;;;;15.44;88.11;97434.09;110065;1248;72662;-68
2022/09/02 10:26:01;;;;;;;5.00;4.40;;;;;;;15.45;88.15;97428.61;110039;1247;69987;-70
2022/09/02 10:28:48;;;;;;;6.10;4.80;;;;;;;15.43;87.90;97425.98;110348;1247;69751;-69
2022/09/02 10:31:30;;;;;;;5.90;4.50;;;;;;;15.42;88.06;97429.52;110168;1247;60556;-70
2022/09/02 10:34:00;;;;;;;5.40;4.00;;;;;;;15.46;88.06;97427.58;110074;1249;60476;-68
2022/09/02 10:36:28;;;;;;;5.90;4.60;;;;;;;15.48;87.79;97420.89;110123;1248;72387;-68
2022/09/02 10:39:38;;;;;;;5.80;4.60;;;;;;;15.51;88.02;97423.41;110125;1247;68650;-69
2022/09/02 10:42:30;;;;;;;5.70;4.70;;;;;;;15.58;88.71;97421.78;110061;1247;68744;-69
2022/09/02 10:45:08;;;;;;;5.60;4.60;;;;;;;15.63;88.71;97419.72;109783;1250;60499;-69
2022/09/02 10:47:39;;;;;;;5.80;4.70;;;;;;;15.70;88.74;97421.40;110058;1248;60499;-69
2022/09/02 10:50:22;;;;;;;6.00;4.40;;;;;;;15.77;87.93;97421.56;110147;1248;72151;-69
2022/09/02 10:53:18;;;;;;;6.60;4.10;;;;;;;15.84;89.67;97424.79;110190;1248;69538;-68
2022/09/02 10:55:49;;;;;;;4.90;3.90;;;;;;;15.90;87.57;97419.65;110104;1248;68704;-70
2022/09/02 10:58:26;;;;;;;5.30;4.70;;;;;;;15.93;87.95;97422.07;110084;1247;60548;-70
2022/09/02 11:00:57;;;;;;;7.40;4.60;;;;;;;15.94;88.64;97425.11;110119;1247;60483;-70
2022/09/02 11:03:38;;;;;;;5.10;4.30;;;;;;;15.96;87.72;97423.14;110144;1248;71393;-70
2022/09/02 11:06:28;;;;;;;5.80;4.60;;;;;;;15.95;88.17;97421.29;109993;1249;68474;-70
2022/09/02 11:09:36;;;;;;;5.10;4.20;;;;;;;15.94;88.48;97422.98;109860;1251;69679;-71
2022/09/02 11:12:15;;;;;;;5.80;4.40;;;;;;;15.94;87.93;97421.42;110119;1247;60511;-71
2022/09/02 11:15:11;;;;;;;5.70;4.50;;;;;;;15.95;87.64;97416.24;109881;1251;60437;-71
2022/09/02 11:18:02;;;;;;;4.80;4.30;;;;;;;15.93;87.53;97415.39;109820;1251;71814;-70
2022/09/02 11:21:12;;;;;;;5.60;4.60;;;;;;;15.88;87.79;97416.03;109875;1250;68652;-71
2022/09/02 11:24:30;;;;;;;7.30;6.50;;;;;;;15.83;87.67;97419.30;109281;1257;68850;-71
2022/09/02 11:27:19;;;;;;;6.90;6.20;;;;;;;15.79;87.64;97415.58;109582;1251;60515;-70
2022/09/02 11:30:20;;;;;;;5.20;4.60;;;;;;;15.77;87.75;97412.45;109654;1250;60414;-69
2022/09/02 11:33:19;;;;;;;6.70;5.90;;;;;;;15.76;87.81;97410.08;109694;1249;72824;-71
2022/09/02 11:35:57;;;;;;;5.90;5.30;;;;;;;15.75;88.53;97408.27;109873;1248;69424;-71
2022/09/02 11:38:48;;;;;;;6.50;5.20;;;;;;;15.74;88.11;97401.98;109604;1253;69832;-70
2022/09/02 11:41:46;;;;;;;6.90;4.80;;;;;;;15.68;88.96;97404.15;109684;1253;60560;-71
2022/09/02 11:45:06;;;;;;;5.10;3.90;;;;;;;15.68;89.15;97398.52;110127;1248;60472;-69
2022/09/02 11:47:51;;;;;;;5.70;4.50;;;;;;;15.72;88.58;97399.06;109677;1251;72800;-72
2022/09/02 11:50:53;;;;;;;5.20;3.90;;;;;;;15.74;90.22;97400.21;109664;1247;70453;-72
2022/09/02 11:53:43;;;;;;;7.20;5.00;;;;;;;15.79;88.42;97395.59;109941;1250;69406;-71
2022/09/02 11:56:33;;;;;;;4.90;4.10;;;;;;;15.77;88.82;97392.95;109675;1250;60594;-70
2022/09/02 11:59:06;;;;;;;5.80;4.20;;;;;;;15.80;89.00;97393.55;110012;1251;60493;-70
2022/09/02 12:01:50;;;;;;;4.20;3.80;;;;;;;15.80;88.69;97390.55;109770;1251;72339;-69
2022/09/02 12:04:25;;;;;;;5.20;4.50;;;;;;;15.82;88.57;97389.15;109827;1251;68650;-70
2022/09/02 12:07:23;;;;;;;5.30;4.30;;;;;;;15.84;88.15;97382.64;109735;1251;69458;-70